createdAt,value
2018-10-02T00:01:26.300Z,14.2
2018-10-02T00:06:23.052Z,14.2
2018-10-02T00:11:19.298Z,14.2
2018-10-02T00:16:15.595Z,13.4
2018-10-02T00:21:12.105Z,14.1
2018-10-02T00:26:08.573Z,14.1
2018-10-02T00:31:05.451Z,14.1
2018-10-02T00:36:01.912Z,13.8
2018-10-02T00:40:58.226Z,14.1
2018-10-02T00:45:54.280Z,14.1
2018-10-02T00:50:51.095Z,14
2018-10-02T00:55:47.525Z,14
2018-10-02T01:00:44.243Z,14.1
2018-10-02T01:05:40.702Z,14.1
2018-10-02T01:10:37.069Z,14
2018-10-02T01:15:33.262Z,13.9
2018-10-02T01:20:29.348Z,13.9
2018-10-02T01:25:25.884Z,13.6
2018-10-02T01:30:22.557Z,13.9
2018-10-02T01:35:18.798Z,13.1
2018-10-02T01:40:15.102Z,13.8
2018-10-02T01:45:11.497Z,13
2018-10-02T01:50:07.982Z,13.7
2018-10-02T01:55:04.417Z,13.7
2018-10-02T02:00:01.457Z,12.9
2018-10-02T02:04:57.874Z,13.6
2018-10-02T02:09:54.409Z,13.6
2018-10-02T02:14:50.437Z,13.6
2018-10-02T02:19:46.849Z,13.2
2018-10-02T02:24:43.354Z,13.4
2018-10-02T02:29:39.898Z,13.5
2018-10-02T02:34:36.362Z,13.4
2018-10-02T02:39:32.615Z,13.4
2018-10-02T02:44:29.062Z,13.4
2018-10-02T02:49:25.419Z,13.4
2018-10-02T02:54:21.944Z,13.3
2018-10-02T02:59:18.952Z,13.3
2018-10-02T03:04:15.285Z,13.3
2018-10-02T03:09:11.609Z,13.2
2018-10-02T03:14:08.079Z,13.1
2018-10-02T03:19:04.403Z,13.2
2018-10-02T03:24:01.165Z,13.2
2018-10-02T03:28:57.402Z,13.2
2018-10-02T03:33:53.837Z,12.9
2018-10-02T03:38:50.178Z,12.9
2018-10-02T03:43:46.856Z,13
2018-10-02T03:48:43.136Z,13
2018-10-02T03:53:39.571Z,13
2018-10-02T03:58:36.110Z,12.4
2018-10-02T04:03:32.504Z,12.8
2018-10-02T04:08:28.938Z,12.8
2018-10-02T04:13:25.333Z,12.8
2018-10-02T04:18:21.573Z,12.6
2018-10-02T04:23:17.896Z,12.6
2018-10-02T04:28:14.175Z,12.6
2018-10-02T04:33:10.507Z,11.1
2018-10-02T04:38:06.479Z,12.6
2018-10-02T04:43:02.667Z,12.5
2018-10-02T04:47:59.145Z,12.5
2018-10-02T04:52:55.313Z,12.5
2018-10-02T04:57:51.901Z,12.6
2018-10-02T05:02:48.202Z,12.6
2018-10-02T05:07:44.523Z,12.6
2018-10-02T05:12:40.689Z,12.6
2018-10-02T05:17:37.074Z,12.7
2018-10-02T05:22:33.324Z,12.7
2018-10-02T05:27:29.886Z,12.8
2018-10-02T05:32:26.191Z,12.8
2018-10-02T05:37:22.617Z,12.9
2018-10-02T05:42:18.653Z,12.2
2018-10-02T05:47:15.164Z,13
2018-10-02T05:52:11.351Z,13
2018-10-02T05:57:07.951Z,13
2018-10-02T06:02:04.161Z,13
2018-10-02T06:07:00.552Z,13.1
2018-10-02T06:11:57.198Z,13.1
2018-10-02T06:16:53.765Z,13.1
2018-10-02T06:21:50.163Z,13.1
2018-10-02T06:26:46.666Z,13.2
2018-10-02T06:31:43.126Z,13.3
2018-10-02T06:36:39.524Z,13.3
2018-10-02T06:41:35.960Z,13.3
2018-10-02T06:46:32.376Z,13.3
2018-10-02T06:51:29.092Z,13.4
2018-10-02T06:56:25.545Z,13.4
2018-10-02T07:01:22.099Z,13.5
2018-10-02T07:06:18.328Z,13.5
2018-10-02T07:11:14.956Z,13.6
2018-10-02T07:16:11.752Z,13.7
2018-10-02T07:21:08.143Z,13.7
2018-10-02T07:26:04.960Z,13.7
2018-10-02T07:31:01.148Z,13.8
2018-10-02T07:35:57.402Z,13.9
2018-10-02T07:40:54.078Z,13.9
2018-10-02T07:45:50.477Z,14
2018-10-02T07:50:47.510Z,13.4
2018-10-02T07:55:43.711Z,13.5
2018-10-02T08:00:40.388Z,14.3
2018-10-02T08:05:37.348Z,14.4
2018-10-02T08:10:33.733Z,14.4
2018-10-02T08:15:30.363Z,14.6
2018-10-02T08:20:27.332Z,14.6
2018-10-02T08:25:24.004Z,14.8
2018-10-02T08:30:20.423Z,14.9
2018-10-02T08:35:16.924Z,15
2018-10-02T08:40:13.964Z,15.1
2018-10-02T08:45:10.501Z,15.2
2018-10-02T08:50:07.106Z,15.3
2018-10-02T08:55:03.513Z,15.4
2018-10-02T09:00:00.320Z,15.5
2018-10-02T09:04:56.647Z,15.6
2018-10-02T09:09:53.296Z,15.7
2018-10-02T09:14:49.741Z,15.8
2018-10-02T09:19:46.251Z,15.9
2018-10-02T09:24:43.244Z,15.4
2018-10-02T09:29:39.643Z,16.2
2018-10-02T09:34:35.312Z,15.6
2018-10-02T09:39:31.524Z,16.5
2018-10-02T09:44:27.419Z,16.6
2018-10-02T09:49:24.913Z,16.1
2018-10-02T09:54:21.674Z,17.3
2018-10-02T09:59:18.496Z,17.7
2018-10-02T10:04:16.018Z,17.9
2018-10-02T10:09:12.276Z,18.1
2018-10-02T10:14:08.842Z,18.3
2018-10-02T10:19:05.444Z,18.5
2018-10-02T10:24:02.371Z,18.2
2018-10-02T10:28:58.866Z,18.1
2018-10-02T10:33:55.433Z,18.3
2018-10-02T10:38:52.099Z,18.3
2018-10-02T10:43:48.493Z,18.4
2018-10-02T10:48:44.490Z,19.1
2018-10-02T10:53:41.380Z,18.6
2018-10-02T10:58:37.889Z,18.7
2018-10-02T11:03:35.235Z,19.5
2018-10-02T11:08:31.294Z,19.7
2018-10-02T11:13:27.797Z,19.2
2018-10-02T11:18:24.284Z,19.4
2018-10-02T11:23:22.222Z,20.3
2018-10-02T11:28:18.143Z,19.8
2018-10-02T11:33:14.798Z,20
2018-10-02T11:38:11.610Z,20.2
2018-10-02T11:43:08.192Z,20.5
2018-10-02T11:48:05.130Z,21.4
2018-10-02T11:53:02.315Z,21
2018-10-02T11:57:59.335Z,21.3
2018-10-02T12:02:56.050Z,22
2018-10-02T12:07:52.423Z,21.5
2018-10-02T12:12:49.216Z,21.7
2018-10-02T12:17:45.757Z,21.8
2018-10-02T12:22:42.393Z,21.8
2018-10-02T12:27:39.154Z,22
2018-10-02T12:32:35.516Z,22
2018-10-02T12:37:31.936Z,22.1
2018-10-02T12:42:28.594Z,22.4
2018-10-02T12:47:25.090Z,22.2
2018-10-02T12:52:21.889Z,22.2
2018-10-02T12:57:18.560Z,22.3
2018-10-02T13:02:15.189Z,22.3
2018-10-02T13:07:12.002Z,22.3
2018-10-02T13:12:08.416Z,22.7
2018-10-02T13:17:04.713Z,22.5
2018-10-02T13:22:01.752Z,22.9
2018-10-02T13:26:58.054Z,22.2
2018-10-02T13:31:54.784Z,22.8
2018-10-02T13:36:51.110Z,22
2018-10-02T13:41:47.843Z,22.5
2018-10-02T13:46:44.226Z,18.1
2018-10-02T13:51:40.769Z,22.1
2018-10-02T13:56:36.906Z,22.6
2018-10-02T14:01:33.766Z,21.9
2018-10-02T14:06:30.108Z,22.4
2018-10-02T14:11:27.844Z,21.7
2018-10-02T14:16:24.125Z,21.5
2018-10-02T14:21:20.660Z,21.5
2018-10-02T14:26:17.017Z,21.4
2018-10-02T14:31:13.389Z,21.3
2018-10-02T14:36:09.943Z,21.9
2018-10-02T14:41:06.525Z,21
2018-10-02T14:46:03.244Z,21.7
2018-10-02T14:50:59.986Z,21.7
2018-10-02T14:55:56.372Z,21
2018-10-02T15:00:53.551Z,20.7
2018-10-02T15:05:50.017Z,20.8
2018-10-02T15:10:46.618Z,20.8
2018-10-02T15:15:43.068Z,20.8
2018-10-02T15:20:39.378Z,20.7
2018-10-02T15:25:35.929Z,20.4
2018-10-02T15:30:32.503Z,20.6
2018-10-02T15:35:28.881Z,20.7
2018-10-02T15:40:25.940Z,21.3
2018-10-02T15:45:22.223Z,21.2
2018-10-02T15:50:18.794Z,19.5
2018-10-02T15:55:15.430Z,20.5
2018-10-02T16:00:12.015Z,20.4
2018-10-02T16:05:08.992Z,20.4
2018-10-02T16:10:05.759Z,20.3
2018-10-02T16:15:01.812Z,20.3
2018-10-02T16:19:58.506Z,20.3
2018-10-02T16:24:54.886Z,20.2
2018-10-02T16:29:51.380Z,20.1
2018-10-02T16:34:49.285Z,20.1
2018-10-02T16:39:44.292Z,20.1
2018-10-02T16:44:40.767Z,20
2018-10-02T16:49:37.441Z,19.9
2018-10-02T16:54:33.727Z,19.9
2018-10-02T16:59:30.463Z,19.9
2018-10-02T17:04:27.201Z,19.8
2018-10-02T17:09:23.639Z,20.4
2018-10-02T17:14:20.699Z,20.4
2018-10-02T17:19:16.720Z,19.7
2018-10-02T17:24:13.193Z,19.6
2018-10-02T17:29:09.884Z,19.6
2018-10-02T17:34:06.612Z,19.5
2018-10-02T17:39:02.832Z,20.1
2018-10-02T17:43:59.197Z,19.4
2018-10-02T17:48:55.176Z,19.4
2018-10-02T17:53:51.638Z,19.3
2018-10-02T17:58:48.428Z,19.3
2018-10-02T18:03:44.757Z,19.9
2018-10-02T18:08:41.332Z,19.2
2018-10-02T18:13:38.003Z,19.1
2018-10-02T18:18:34.639Z,19
2018-10-02T18:23:31.114Z,19
2018-10-02T18:28:27.658Z,18.9
2018-10-02T18:33:24.221Z,18.9
2018-10-02T18:38:20.580Z,18.9
2018-10-02T18:43:17.132Z,18.7
2018-10-02T18:48:12.965Z,18.7
2018-10-02T18:53:09.046Z,18.6
2018-10-02T18:58:06.636Z,18.6
2018-10-02T19:03:03.428Z,19.2
2018-10-02T19:07:59.408Z,19.1
2018-10-02T19:12:55.887Z,19
2018-10-02T19:17:52.489Z,18.9
2018-10-02T19:22:48.624Z,18.8
2018-10-02T19:27:45.288Z,18
2018-10-02T19:32:41.885Z,18.6
2018-10-02T19:37:38.272Z,18.5
2018-10-02T19:42:35.035Z,17.7
2018-10-02T19:47:31.059Z,18.3
2018-10-02T19:52:26.708Z,18.2
2018-10-02T19:57:23.061Z,18.1
2018-10-02T20:02:19.639Z,18
2018-10-02T20:07:16.040Z,17.9
2018-10-02T20:12:12.333Z,17.7
2018-10-02T20:17:08.676Z,17.6
2018-10-02T20:22:05.089Z,17.5
2018-10-02T20:27:01.458Z,17.4
2018-10-02T20:31:57.812Z,17.3
2018-10-02T20:36:53.575Z,16.4
2018-10-02T20:41:49.971Z,17
2018-10-02T20:46:45.948Z,17
2018-10-02T20:51:42.258Z,16.8
2018-10-02T20:56:38.691Z,16.6
2018-10-02T21:01:35.116Z,16.5
2018-10-02T21:06:31.701Z,16.4
2018-10-02T21:11:27.961Z,15.4
2018-10-02T21:16:24.498Z,16.2
2018-10-02T21:21:20.905Z,16.1
2018-10-02T21:26:17.116Z,16
2018-10-02T21:31:13.500Z,15.9
2018-10-02T21:36:09.989Z,15.9
2018-10-02T21:41:06.343Z,15.8
2018-10-02T21:46:03.399Z,15.7
2018-10-02T21:50:59.432Z,15.7
2018-10-02T21:55:56.233Z,15.6
2018-10-02T22:00:52.635Z,15.6
2018-10-02T22:05:49.618Z,15.5
2018-10-02T22:10:46.189Z,15.4
2018-10-02T22:15:42.760Z,15.4
2018-10-02T22:20:39.216Z,15.3
2018-10-02T22:25:35.812Z,15.3
2018-10-02T22:30:32.520Z,15.2
2018-10-02T22:35:28.415Z,15.1
2018-10-02T22:40:24.914Z,15.1
2018-10-02T22:45:21.386Z,14.8
2018-10-02T22:50:17.904Z,15
2018-10-02T22:55:14.884Z,14.9
2018-10-02T23:00:11.911Z,14.2
2018-10-02T23:05:08.637Z,14.8
2018-10-02T23:10:04.962Z,12.1
2018-10-02T23:15:01.961Z,14.7
2018-10-02T23:19:58.332Z,14.7
2018-10-02T23:24:54.881Z,14.6
2018-10-02T23:29:51.605Z,14.6
2018-10-02T23:34:48.114Z,14.6
2018-10-02T23:39:44.780Z,14.5
2018-10-02T23:44:41.434Z,14.5
2018-10-02T23:49:37.970Z,14.4
2018-10-02T23:54:34.894Z,14.4
2018-10-02T23:59:31.494Z,14.4
